sensor_id;sensor_type;location;lat;lon;timestamp;temperature;humidity
16958;DHT22;8595;52.542;11.974;2023-04-25T00:00:26;8.80;99.90
16958;DHT22;8595;52.542;11.974;2023-04-25T00:02:55;8.90;99.90
16958;DHT22;8595;52.542;11.974;2023-04-25T00:05:23;9.00;99.90
16958;DHT22;8595;52.542;11.974;2023-04-25T00:07:50;9.00;99.90
16958;DHT22;8595;52.542;11.974;2023-04-25T00:10:19;8.90;99.90
16958;DHT22;8595;52.542;11.974;2023-04-25T00:12:47;8.80;99.90
16958;DHT22;8595;52.542;11.974;2023-04-25T00:15:15;8.80;99.90
16958;DHT22;8595;52.542;11.974;2023-04-25T00:17:41;8.70;99.90
16958;DHT22;8595;52.542;11.974;2023-04-25T00:20:11;8.70;99.90
16958;DHT22;8595;52.542;11.974;2023-04-25T00:22:38;8.70;99.90
16958;DHT22;8595;52.542;11.974;2023-04-25T00:25:05;8.80;99.90
16958;DHT22;8595;52.542;11.974;2023-04-25T00:27:32;8.70;99.90
16958;DHT22;8595;52.542;11.974;2023-04-25T00:30:00;8.70;99.90
16958;DHT22;8595;52.542;11.974;2023-04-25T00:32:26;8.80;99.90
16958;DHT22;8595;52.542;11.974;2023-04-25T00:34:53;8.80;99.90
16958;DHT22;8595;52.542;11.974;2023-04-25T00:37:22;8.80;99.90
16958;DHT22;8595;52.542;11.974;2023-04-25T00:39:49;8.70;99.90
16958;DHT22;8595;52.542;11.974;2023-04-25T00:42:16;8.80;99.90
16958;DHT22;8595;52.542;11.974;2023-04-25T00:44:44;8.80;99.90
16958;DHT22;8595;52.542;11.974;2023-04-25T00:47:11;8.80;99.90
16958;DHT22;8595;52.542;11.974;2023-04-25T00:49:38;8.80;99.90
16958;DHT22;8595;52.542;11.974;2023-04-25T00:52:05;8.90;99.90
16958;DHT22;8595;52.542;11.974;2023-04-25T00:54:33;8.80;99.90
16958;DHT22;8595;52.542;11.974;2023-04-25T00:57:00;8.80;99.90
16958;DHT22;8595;52.542;11.974;2023-04-25T00:59:28;8.80;99.90
16958;DHT22;8595;52.542;11.974;2023-04-25T01:01:56;8.80;99.90
16958;DHT22;8595;52.542;11.974;2023-04-25T01:04:26;8.90;99.90
16958;DHT22;8595;52.542;11.974;2023-04-25T01:06:53;8.80;99.90
16958;DHT22;8595;52.542;11.974;2023-04-25T01:09:21;8.80;99.90
16958;DHT22;8595;52.542;11.974;2023-04-25T01:11:50;8.80;99.90
16958;DHT22;8595;52.542;11.974;2023-04-25T01:14:17;8.80;99.90
16958;DHT22;8595;52.542;11.974;2023-04-25T01:16:44;8.80;99.90
16958;DHT22;8595;52.542;11.974;2023-04-25T01:19:11;8.90;99.90
16958;DHT22;8595;52.542;11.974;2023-04-25T01:21:40;8.90;99.90
16958;DHT22;8595;52.542;11.974;2023-04-25T01:24:07;9.00;99.90
16958;DHT22;8595;52.542;11.974;2023-04-25T01:26:35;9.00;99.90
16958;DHT22;8595;52.542;11.974;2023-04-25T01:29:01;8.90;99.90
16958;DHT22;8595;52.542;11.974;2023-04-25T01:31:30;9.00;99.90
16958;DHT22;8595;52.542;11.974;2023-04-25T01:33:58;9.00;99.90
16958;DHT22;8595;52.542;11.974;2023-04-25T01:36:25;8.90;99.90
16958;DHT22;8595;52.542;11.974;2023-04-25T01:38:53;8.90;99.90
16958;DHT22;8595;52.542;11.974;2023-04-25T01:41:20;8.90;99.90
16958;DHT22;8595;52.542;11.974;2023-04-25T01:43:48;8.80;99.90
16958;DHT22;8595;52.542;11.974;2023-04-25T01:46:15;8.80;99.90
16958;DHT22;8595;52.542;11.974;2023-04-25T01:48:42;8.90;99.90
16958;DHT22;8595;52.542;11.974;2023-04-25T01:51:08;8.80;99.90
16958;DHT22;8595;52.542;11.974;2023-04-25T01:53:37;8.80;99.90
16958;DHT22;8595;52.542;11.974;2023-04-25T01:56:05;8.80;99.90
16958;DHT22;8595;52.542;11.974;2023-04-25T01:58:32;8.80;99.90
16958;DHT22;8595;52.542;11.974;2023-04-25T02:01:00;8.80;99.90
16958;DHT22;8595;52.542;11.974;2023-04-25T02:03:27;8.90;99.90
16958;DHT22;8595;52.542;11.974;2023-04-25T02:05:53;8.80;99.90
16958;DHT22;8595;52.542;11.974;2023-04-25T02:08:20;8.70;99.90
16958;DHT22;8595;52.542;11.974;2023-04-25T02:10:47;8.70;99.90
16958;DHT22;8595;52.542;11.974;2023-04-25T02:13:15;8.80;99.90
16958;DHT22;8595;52.542;11.974;2023-04-25T02:15:42;8.80;99.90
16958;DHT22;8595;52.542;11.974;2023-04-25T02:18:08;8.80;99.90
16958;DHT22;8595;52.542;11.974;2023-04-25T02:20:38;8.80;99.90
16958;DHT22;8595;52.542;11.974;2023-04-25T02:23:04;8.80;99.90
16958;DHT22;8595;52.542;11.974;2023-04-25T02:25:31;8.70;99.90
16958;DHT22;8595;52.542;11.974;2023-04-25T02:28:01;8.70;99.90
16958;DHT22;8595;52.542;11.974;2023-04-25T02:30:31;8.60;99.90
16958;DHT22;8595;52.542;11.974;2023-04-25T02:32:59;8.70;99.90
16958;DHT22;8595;52.542;11.974;2023-04-25T02:35:25;8.60;99.90
16958;DHT22;8595;52.542;11.974;2023-04-25T02:37:52;8.60;99.90
16958;DHT22;8595;52.542;11.974;2023-04-25T02:40:19;8.70;99.90
16958;DHT22;8595;52.542;11.974;2023-04-25T02:42:46;8.60;99.90
16958;DHT22;8595;52.542;11.974;2023-04-25T02:45:12;8.70;99.90
16958;DHT22;8595;52.542;11.974;2023-04-25T02:47:40;8.60;99.90
16958;DHT22;8595;52.542;11.974;2023-04-25T02:50:08;8.50;99.90
16958;DHT22;8595;52.542;11.974;2023-04-25T02:52:34;8.40;99.90
16958;DHT22;8595;52.542;11.974;2023-04-25T02:55:01;8.30;99.90
16958;DHT22;8595;52.542;11.974;2023-04-25T02:57:28;8.40;99.90
16958;DHT22;8595;52.542;11.974;2023-04-25T02:59:54;8.40;99.90
16958;DHT22;8595;52.542;11.974;2023-04-25T03:02:21;8.30;99.90
16958;DHT22;8595;52.542;11.974;2023-04-25T03:04:49;8.30;99.90
16958;DHT22;8595;52.542;11.974;2023-04-25T03:07:16;8.40;99.90
16958;DHT22;8595;52.542;11.974;2023-04-25T03:09:43;8.50;99.90
16958;DHT22;8595;52.542;11.974;2023-04-25T03:12:10;8.50;99.90
16958;DHT22;8595;52.542;11.974;2023-04-25T03:14:37;8.50;99.90
16958;DHT22;8595;52.542;11.974;2023-04-25T03:17:04;8.50;99.90
16958;DHT22;8595;52.542;11.974;2023-04-25T03:19:30;8.50;99.90
16958;DHT22;8595;52.542;11.974;2023-04-25T03:21:58;8.50;99.90
16958;DHT22;8595;52.542;11.974;2023-04-25T03:24:25;8.40;99.90
16958;DHT22;8595;52.542;11.974;2023-04-25T03:26:52;8.50;99.90
16958;DHT22;8595;52.542;11.974;2023-04-25T03:29:20;8.50;99.90
16958;DHT22;8595;52.542;11.974;2023-04-25T03:31:49;8.50;99.90
16958;DHT22;8595;52.542;11.974;2023-04-25T03:34:16;8.40;99.90
16958;DHT22;8595;52.542;11.974;2023-04-25T03:36:43;8.30;99.90
16958;DHT22;8595;52.542;11.974;2023-04-25T03:39:12;8.40;99.90
16958;DHT22;8595;52.542;11.974;2023-04-25T03:41:39;8.50;99.90
16958;DHT22;8595;52.542;11.974;2023-04-25T03:44:06;8.40;99.90
16958;DHT22;8595;52.542;11.974;2023-04-25T03:46:32;8.40;99.90
16958;DHT22;8595;52.542;11.974;2023-04-25T03:48:59;8.40;99.90
16958;DHT22;8595;52.542;11.974;2023-04-25T03:51:26;8.30;99.90
16958;DHT22;8595;52.542;11.974;2023-04-25T03:53:52;8.30;99.90
16958;DHT22;8595;52.542;11.974;2023-04-25T03:56:21;8.30;99.90
16958;DHT22;8595;52.542;11.974;2023-04-25T03:58:47;8.20;99.90
16958;DHT22;8595;52.542;11.974;2023-04-25T04:01:14;8.10;99.90
16958;DHT22;8595;52.542;11.974;2023-04-25T04:03:42;8.10;99.90
16958;DHT22;8595;52.542;11.974;2023-04-25T04:06:09;8.10;99.90
16958;DHT22;8595;52.542;11.974;2023-04-25T04:08:37;8.10;99.90
16958;DHT22;8595;52.542;11.974;2023-04-25T04:11:03;8.20;99.90
16958;DHT22;8595;52.542;11.974;2023-04-25T04:13:31;8.30;99.90
16958;DHT22;8595;52.542;11.974;2023-04-25T04:15:58;8.30;99.90
16958;DHT22;8595;52.542;11.974;2023-04-25T04:18:25;8.40;99.90
16958;DHT22;8595;52.542;11.974;2023-04-25T04:20:52;8.40;99.90
16958;DHT22;8595;52.542;11.974;2023-04-25T04:23:19;8.40;99.90
16958;DHT22;8595;52.542;11.974;2023-04-25T04:25:46;8.30;99.90
16958;DHT22;8595;52.542;11.974;2023-04-25T04:28:13;8.30;99.90
16958;DHT22;8595;52.542;11.974;2023-04-25T04:30:43;8.40;99.90
16958;DHT22;8595;52.542;11.974;2023-04-25T04:33:11;8.30;99.90
16958;DHT22;8595;52.542;11.974;2023-04-25T04:35:38;8.30;99.90
16958;DHT22;8595;52.542;11.974;2023-04-25T04:38:06;8.20;99.90
16958;DHT22;8595;52.542;11.974;2023-04-25T04:40:32;8.10;99.90
16958;DHT22;8595;52.542;11.974;2023-04-25T04:43:00;8.10;99.90
16958;DHT22;8595;52.542;11.974;2023-04-25T04:45:27;8.10;99.90
16958;DHT22;8595;52.542;11.974;2023-04-25T04:47:55;8.10;99.90
16958;DHT22;8595;52.542;11.974;2023-04-25T04:50:22;8.10;99.90
16958;DHT22;8595;52.542;11.974;2023-04-25T04:52:48;8.00;99.90
16958;DHT22;8595;52.542;11.974;2023-04-25T04:55:15;8.00;99.90
16958;DHT22;8595;52.542;11.974;2023-04-25T04:57:42;8.10;99.90
16958;DHT22;8595;52.542;11.974;2023-04-25T05:00:10;8.10;99.90
16958;DHT22;8595;52.542;11.974;2023-04-25T05:02:37;8.00;99.90
16958;DHT22;8595;52.542;11.974;2023-04-25T05:05:06;7.90;99.90
16958;DHT22;8595;52.542;11.974;2023-04-25T05:07:34;7.70;99.90
16958;DHT22;8595;52.542;11.974;2023-04-25T05:10:01;7.60;99.90
16958;DHT22;8595;52.542;11.974;2023-04-25T05:12:28;7.60;99.90
16958;DHT22;8595;52.542;11.974;2023-04-25T05:14:55;7.70;99.90
16958;DHT22;8595;52.542;11.974;2023-04-25T05:17:22;7.60;99.90
16958;DHT22;8595;52.542;11.974;2023-04-25T05:19:49;7.70;99.90
16958;DHT22;8595;52.542;11.974;2023-04-25T05:22:17;7.80;99.90
16958;DHT22;8595;52.542;11.974;2023-04-25T05:24:43;7.80;99.90
16958;DHT22;8595;52.542;11.974;2023-04-25T05:27:10;7.80;99.90
16958;DHT22;8595;52.542;11.974;2023-04-25T05:29:37;7.70;99.90
16958;DHT22;8595;52.542;11.974;2023-04-25T05:32:05;7.90;99.90
16958;DHT22;8595;52.542;11.974;2023-04-25T05:34:32;8.00;99.90
16958;DHT22;8595;52.542;11.974;2023-04-25T05:36:59;8.00;99.90
16958;DHT22;8595;52.542;11.974;2023-04-25T05:39:28;7.90;99.90
16958;DHT22;8595;52.542;11.974;2023-04-25T05:41:55;7.90;99.90
16958;DHT22;8595;52.542;11.974;2023-04-25T05:44:22;7.90;99.90
16958;DHT22;8595;52.542;11.974;2023-04-25T05:46:49;7.90;99.90
16958;DHT22;8595;52.542;11.974;2023-04-25T05:49:16;8.00;99.90
16958;DHT22;8595;52.542;11.974;2023-04-25T05:51:42;8.00;99.90
16958;DHT22;8595;52.542;11.974;2023-04-25T05:54:09;8.10;99.90
16958;DHT22;8595;52.542;11.974;2023-04-25T05:56:37;8.00;99.90
16958;DHT22;8595;52.542;11.974;2023-04-25T05:59:04;7.90;99.90
16958;DHT22;8595;52.542;11.974;2023-04-25T06:01:31;7.90;99.90
16958;DHT22;8595;52.542;11.974;2023-04-25T06:03:58;7.90;99.90
16958;DHT22;8595;52.542;11.974;2023-04-25T06:06:25;8.00;99.90
16958;DHT22;8595;52.542;11.974;2023-04-25T06:08:53;7.90;99.90
16958;DHT22;8595;52.542;11.974;2023-04-25T06:11:20;7.90;99.90
16958;DHT22;8595;52.542;11.974;2023-04-25T06:13:48;8.10;99.90
16958;DHT22;8595;52.542;11.974;2023-04-25T06:16:14;8.10;99.90
16958;DHT22;8595;52.542;11.974;2023-04-25T06:18:41;8.10;99.90
16958;DHT22;8595;52.542;11.974;2023-04-25T06:21:08;8.20;99.90
16958;DHT22;8595;52.542;11.974;2023-04-25T06:23:37;8.20;99.90
16958;DHT22;8595;52.542;11.974;2023-04-25T06:26:03;8.20;99.90
16958;DHT22;8595;52.542;11.974;2023-04-25T06:28:30;8.20;99.90
16958;DHT22;8595;52.542;11.974;2023-04-25T06:30:58;8.20;99.90
16958;DHT22;8595;52.542;11.974;2023-04-25T06:33:25;8.30;99.90
16958;DHT22;8595;52.542;11.974;2023-04-25T06:35:52;8.40;99.90
16958;DHT22;8595;52.542;11.974;2023-04-25T06:38:20;8.50;99.90
16958;DHT22;8595;52.542;11.974;2023-04-25T06:40:46;8.50;99.90
16958;DHT22;8595;52.542;11.974;2023-04-25T06:43:13;8.40;99.90
16958;DHT22;8595;52.542;11.974;2023-04-25T06:45:41;8.50;99.90
16958;DHT22;8595;52.542;11.974;2023-04-25T06:48:09;8.50;99.90
16958;DHT22;8595;52.542;11.974;2023-04-25T06:50:36;8.50;99.90
16958;DHT22;8595;52.542;11.974;2023-04-25T06:53:02;8.20;99.90
16958;DHT22;8595;52.542;11.974;2023-04-25T06:55:29;8.30;99.90
16958;DHT22;8595;52.542;11.974;2023-04-25T06:57:56;8.30;99.90
16958;DHT22;8595;52.542;11.974;2023-04-25T07:03:58;8.40;99.90
16958;DHT22;8595;52.542;11.974;2023-04-25T07:06:25;8.30;99.90
16958;DHT22;8595;52.542;11.974;2023-04-25T07:08:53;8.50;99.90
16958;DHT22;8595;52.542;11.974;2023-04-25T07:11:20;8.80;99.90
16958;DHT22;8595;52.542;11.974;2023-04-25T07:13:46;8.80;99.90
16958;DHT22;8595;52.542;11.974;2023-04-25T07:16:13;9.00;99.90
16958;DHT22;8595;52.542;11.974;2023-04-25T07:18:40;9.30;99.90
16958;DHT22;8595;52.542;11.974;2023-04-25T07:21:08;9.30;99.90
16958;DHT22;8595;52.542;11.974;2023-04-25T07:23:35;9.50;99.90
16958;DHT22;8595;52.542;11.974;2023-04-25T07:26:02;9.60;99.90
16958;DHT22;8595;52.542;11.974;2023-04-25T07:28:29;9.50;99.90
16958;DHT22;8595;52.542;11.974;2023-04-25T07:30:56;9.30;99.90
16958;DHT22;8595;52.542;11.974;2023-04-25T07:33:23;9.30;99.90
16958;DHT22;8595;52.542;11.974;2023-04-25T07:35:50;9.50;99.90
16958;DHT22;8595;52.542;11.974;2023-04-25T07:38:18;9.60;99.90
16958;DHT22;8595;52.542;11.974;2023-04-25T07:40:48;9.80;99.90
16958;DHT22;8595;52.542;11.974;2023-04-25T07:43:15;9.90;99.90
16958;DHT22;8595;52.542;11.974;2023-04-25T07:45:42;10.10;99.90
16958;DHT22;8595;52.542;11.974;2023-04-25T07:48:09;10.20;99.90
16958;DHT22;8595;52.542;11.974;2023-04-25T07:50:36;9.70;99.90
16958;DHT22;8595;52.542;11.974;2023-04-25T07:53:03;9.60;99.90
16958;DHT22;8595;52.542;11.974;2023-04-25T07:55:31;9.60;99.90
16958;DHT22;8595;52.542;11.974;2023-04-25T07:57:58;9.60;99.90
16958;DHT22;8595;52.542;11.974;2023-04-25T08:00:25;9.80;99.90
16958;DHT22;8595;52.542;11.974;2023-04-25T08:02:51;9.90;99.90
16958;DHT22;8595;52.542;11.974;2023-04-25T08:05:18;9.80;99.90
16958;DHT22;8595;52.542;11.974;2023-04-25T08:07:45;9.90;99.90
16958;DHT22;8595;52.542;11.974;2023-04-25T08:10:11;9.80;99.90
16958;DHT22;8595;52.542;11.974;2023-04-25T08:12:39;9.90;99.90
16958;DHT22;8595;52.542;11.974;2023-04-25T08:15:07;9.90;99.90
16958;DHT22;8595;52.542;11.974;2023-04-25T08:17:34;10.10;99.90
16958;DHT22;8595;52.542;11.974;2023-04-25T08:20:01;10.30;99.90
16958;DHT22;8595;52.542;11.974;2023-04-25T08:22:31;10.60;99.90
16958;DHT22;8595;52.542;11.974;2023-04-25T08:24:59;10.60;99.90
16958;DHT22;8595;52.542;11.974;2023-04-25T08:27:26;10.60;99.90
16958;DHT22;8595;52.542;11.974;2023-04-25T08:29:56;11.20;99.90
16958;DHT22;8595;52.542;11.974;2023-04-25T08:32:24;11.50;99.90
16958;DHT22;8595;52.542;11.974;2023-04-25T08:34:51;11.90;99.90
16958;DHT22;8595;52.542;11.974;2023-04-25T08:37:19;11.90;99.90
16958;DHT22;8595;52.542;11.974;2023-04-25T08:39:46;12.20;99.90
16958;DHT22;8595;52.542;11.974;2023-04-25T08:42:15;12.30;99.90
16958;DHT22;8595;52.542;11.974;2023-04-25T08:44:41;12.10;99.90
16958;DHT22;8595;52.542;11.974;2023-04-25T08:47:10;12.40;99.90
16958;DHT22;8595;52.542;11.974;2023-04-25T08:49:38;12.30;99.90
16958;DHT22;8595;52.542;11.974;2023-04-25T08:52:06;12.40;99.90
16958;DHT22;8595;52.542;11.974;2023-04-25T08:54:36;11.90;99.90
16958;DHT22;8595;52.542;11.974;2023-04-25T08:57:03;12.20;99.90
16958;DHT22;8595;52.542;11.974;2023-04-25T08:59:31;11.80;99.90
16958;DHT22;8595;52.542;11.974;2023-04-25T09:01:58;12.20;99.90
16958;DHT22;8595;52.542;11.974;2023-04-25T09:04:27;12.30;99.90
16958;DHT22;8595;52.542;11.974;2023-04-25T09:06:54;13.10;99.90
16958;DHT22;8595;52.542;11.974;2023-04-25T09:09:20;14.10;99.90
16958;DHT22;8595;52.542;11.974;2023-04-25T09:11:47;14.10;99.90
16958;DHT22;8595;52.542;11.974;2023-04-25T09:14:15;13.20;99.90
16958;DHT22;8595;52.542;11.974;2023-04-25T09:17:01;12.30;99.90
16958;DHT22;8595;52.542;11.974;2023-04-25T09:19:31;11.60;99.90
16958;DHT22;8595;52.542;11.974;2023-04-25T09:22:01;11.40;99.90
16958;DHT22;8595;52.542;11.974;2023-04-25T09:24:32;11.00;99.90
16958;DHT22;8595;52.542;11.974;2023-04-25T09:26:59;10.70;99.90
16958;DHT22;8595;52.542;11.974;2023-04-25T09:29:30;10.30;99.90
16958;DHT22;8595;52.542;11.974;2023-04-25T09:32:18;10.00;99.90
16958;DHT22;8595;52.542;11.974;2023-04-25T09:34:47;10.20;99.90
16958;DHT22;8595;52.542;11.974;2023-04-25T09:37:18;10.10;99.90
16958;DHT22;8595;52.542;11.974;2023-04-25T09:39:46;10.20;99.90
16958;DHT22;8595;52.542;11.974;2023-04-25T09:42:14;10.10;99.90
16958;DHT22;8595;52.542;11.974;2023-04-25T09:44:42;10.20;99.90
16958;DHT22;8595;52.542;11.974;2023-04-25T09:47:10;10.50;99.90
16958;DHT22;8595;52.542;11.974;2023-04-25T09:49:39;10.60;99.90
16958;DHT22;8595;52.542;11.974;2023-04-25T09:52:09;10.40;99.90
16958;DHT22;8595;52.542;11.974;2023-04-25T09:54:37;10.40;99.90
16958;DHT22;8595;52.542;11.974;2023-04-25T09:57:10;10.50;99.90
16958;DHT22;8595;52.542;11.974;2023-04-25T09:59:39;10.70;99.90
16958;DHT22;8595;52.542;11.974;2023-04-25T10:02:07;10.60;99.90
16958;DHT22;8595;52.542;11.974;2023-04-25T10:04:35;10.40;99.90
16958;DHT22;8595;52.542;11.974;2023-04-25T10:07:03;10.00;99.90
16958;DHT22;8595;52.542;11.974;2023-04-25T10:09:33;9.90;99.90
16958;DHT22;8595;52.542;11.974;2023-04-25T10:12:03;9.90;99.90
16958;DHT22;8595;52.542;11.974;2023-04-25T10:14:30;10.00;99.90
16958;DHT22;8595;52.542;11.974;2023-04-25T10:16:58;10.00;99.90
16958;DHT22;8595;52.542;11.974;2023-04-25T10:19:26;10.10;99.90
16958;DHT22;8595;52.542;11.974;2023-04-25T10:21:58;10.30;99.90
16958;DHT22;8595;52.542;11.974;2023-04-25T10:24:28;10.50;99.90
16958;DHT22;8595;52.542;11.974;2023-04-25T10:26:57;10.80;99.90
16958;DHT22;8595;52.542;11.974;2023-04-25T10:29:25;11.00;99.90
16958;DHT22;8595;52.542;11.974;2023-04-25T10:31:53;11.20;99.90
16958;DHT22;8595;52.542;11.974;2023-04-25T10:34:24;11.00;99.90
16958;DHT22;8595;52.542;11.974;2023-04-25T10:36:52;10.90;99.90
16958;DHT22;8595;52.542;11.974;2023-04-25T10:39:23;11.10;99.90
16958;DHT22;8595;52.542;11.974;2023-04-25T10:41:55;11.10;99.90
16958;DHT22;8595;52.542;11.974;2023-04-25T10:44:26;10.70;99.90
16958;DHT22;8595;52.542;11.974;2023-04-25T10:46:55;10.60;99.90
16958;DHT22;8595;52.542;11.974;2023-04-25T10:49:33;10.50;99.90
16958;DHT22;8595;52.542;11.974;2023-04-25T10:52:14;10.40;99.90
16958;DHT22;8595;52.542;11.974;2023-04-25T10:54:42;10.40;99.90
16958;DHT22;8595;52.542;11.974;2023-04-25T10:57:25;10.10;99.90
16958;DHT22;8595;52.542;11.974;2023-04-25T10:59:54;10.30;99.90
16958;DHT22;8595;52.542;11.974;2023-04-25T11:02:26;10.30;99.90
16958;DHT22;8595;52.542;11.974;2023-04-25T11:04:54;10.40;99.90
16958;DHT22;8595;52.542;11.974;2023-04-25T11:07:26;10.40;99.90
16958;DHT22;8595;52.542;11.974;2023-04-25T11:09:55;10.50;99.90
16958;DHT22;8595;52.542;11.974;2023-04-25T11:12:24;10.60;99.90
16958;DHT22;8595;52.542;11.974;2023-04-25T11:14:59;10.40;99.90
16958;DHT22;8595;52.542;11.974;2023-04-25T11:17:28;10.60;99.90
16958;DHT22;8595;52.542;11.974;2023-04-25T11:19:55;10.90;99.90
16958;DHT22;8595;52.542;11.974;2023-04-25T11:22:22;11.10;99.90
16958;DHT22;8595;52.542;11.974;2023-04-25T11:24:49;11.00;99.90
16958;DHT22;8595;52.542;11.974;2023-04-25T11:27:16;10.70;99.90
16958;DHT22;8595;52.542;11.974;2023-04-25T11:29:43;10.70;99.90
16958;DHT22;8595;52.542;11.974;2023-04-25T11:32:11;10.70;99.90
16958;DHT22;8595;52.542;11.974;2023-04-25T11:34:38;10.80;99.90
16958;DHT22;8595;52.542;11.974;2023-04-25T11:37:05;11.00;99.90
16958;DHT22;8595;52.542;11.974;2023-04-25T11:39:32;11.10;99.90
16958;DHT22;8595;52.542;11.974;2023-04-25T11:41:59;10.90;99.90
16958;DHT22;8595;52.542;11.974;2023-04-25T11:44:26;10.80;99.90
16958;DHT22;8595;52.542;11.974;2023-04-25T11:46:55;10.80;99.90
16958;DHT22;8595;52.542;11.974;2023-04-25T11:49:23;11.00;99.90
16958;DHT22;8595;52.542;11.974;2023-04-25T11:51:50;11.30;99.90
16958;DHT22;8595;52.542;11.974;2023-04-25T11:54:17;11.60;99.90
16958;DHT22;8595;52.542;11.974;2023-04-25T11:56:44;12.00;99.90
16958;DHT22;8595;52.542;11.974;2023-04-25T11:59:11;12.50;99.90
16958;DHT22;8595;52.542;11.974;2023-04-25T12:01:40;13.00;99.90
16958;DHT22;8595;52.542;11.974;2023-04-25T12:04:11;13.30;99.90
16958;DHT22;8595;52.542;11.974;2023-04-25T12:06:40;13.20;99.90
16958;DHT22;8595;52.542;11.974;2023-04-25T12:09:08;12.80;99.90
16958;DHT22;8595;52.542;11.974;2023-04-25T12:11:41;12.30;99.90
16958;DHT22;8595;52.542;11.974;2023-04-25T12:14:08;11.40;99.90
16958;DHT22;8595;52.542;11.974;2023-04-25T12:16:42;11.00;99.90
16958;DHT22;8595;52.542;11.974;2023-04-25T12:19:08;10.60;99.90
16958;DHT22;8595;52.542;11.974;2023-04-25T12:21:35;10.50;99.90
16958;DHT22;8595;52.542;11.974;2023-04-25T12:24:12;10.40;99.90
16958;DHT22;8595;52.542;11.974;2023-04-25T12:26:49;10.30;99.90
16958;DHT22;8595;52.542;11.974;2023-04-25T12:29:22;10.20;99.90
16958;DHT22;8595;52.542;11.974;2023-04-25T12:31:50;10.40;99.90
16958;DHT22;8595;52.542;11.974;2023-04-25T12:34:18;10.40;99.90
16958;DHT22;8595;52.542;11.974;2023-04-25T12:36:44;10.40;99.90
16958;DHT22;8595;52.542;11.974;2023-04-25T12:39:16;10.20;99.90
16958;DHT22;8595;52.542;11.974;2023-04-25T12:41:42;10.20;99.90
16958;DHT22;8595;52.542;11.974;2023-04-25T12:44:10;10.10;99.90
16958;DHT22;8595;52.542;11.974;2023-04-25T12:46:37;10.20;99.90
16958;DHT22;8595;52.542;11.974;2023-04-25T12:49:04;10.70;99.90
16958;DHT22;8595;52.542;11.974;2023-04-25T12:51:32;11.80;99.90
16958;DHT22;8595;52.542;11.974;2023-04-25T12:53:59;12.90;99.90
16958;DHT22;8595;52.542;11.974;2023-04-25T12:56:27;13.80;99.90
16958;DHT22;8595;52.542;11.974;2023-04-25T12:58:54;14.30;99.90
16958;DHT22;8595;52.542;11.974;2023-04-25T13:01:21;14.50;99.90
16958;DHT22;8595;52.542;11.974;2023-04-25T13:03:48;14.00;99.90
16958;DHT22;8595;52.542;11.974;2023-04-25T13:06:15;13.70;99.90
16958;DHT22;8595;52.542;11.974;2023-04-25T13:08:42;13.50;99.90
16958;DHT22;8595;52.542;11.974;2023-04-25T13:11:09;13.20;99.90
16958;DHT22;8595;52.542;11.974;2023-04-25T13:13:38;12.90;99.90
16958;DHT22;8595;52.542;11.974;2023-04-25T13:16:06;12.70;99.90
16958;DHT22;8595;52.542;11.974;2023-04-25T13:18:34;12.50;99.90
16958;DHT22;8595;52.542;11.974;2023-04-25T13:21:01;12.20;99.90
16958;DHT22;8595;52.542;11.974;2023-04-25T13:23:28;12.10;99.90
16958;DHT22;8595;52.542;11.974;2023-04-25T13:25:57;12.10;99.90
16958;DHT22;8595;52.542;11.974;2023-04-25T13:28:24;12.00;99.90
16958;DHT22;8595;52.542;11.974;2023-04-25T13:30:52;11.90;99.90
16958;DHT22;8595;52.542;11.974;2023-04-25T13:33:20;11.90;99.90
16958;DHT22;8595;52.542;11.974;2023-04-25T13:35:48;11.60;99.90
16958;DHT22;8595;52.542;11.974;2023-04-25T13:38:20;11.30;99.90
16958;DHT22;8595;52.542;11.974;2023-04-25T13:40:48;11.10;99.90
16958;DHT22;8595;52.542;11.974;2023-04-25T13:43:14;11.00;99.90
16958;DHT22;8595;52.542;11.974;2023-04-25T13:45:41;10.70;99.90
16958;DHT22;8595;52.542;11.974;2023-04-25T13:48:10;10.40;99.90
16958;DHT22;8595;52.542;11.974;2023-04-25T13:50:37;10.30;99.90
16958;DHT22;8595;52.542;11.974;2023-04-25T13:53:03;10.20;99.90
16958;DHT22;8595;52.542;11.974;2023-04-25T13:55:33;10.00;99.90
16958;DHT22;8595;52.542;11.974;2023-04-25T13:58:00;9.90;99.90
16958;DHT22;8595;52.542;11.974;2023-04-25T14:00:33;9.70;99.90
16958;DHT22;8595;52.542;11.974;2023-04-25T14:03:03;9.70;99.90
16958;DHT22;8595;52.542;11.974;2023-04-25T14:05:34;9.80;99.90
16958;DHT22;8595;52.542;11.974;2023-04-25T14:08:04;9.80;99.90
16958;DHT22;8595;52.542;11.974;2023-04-25T14:10:31;10.10;99.90
16958;DHT22;8595;52.542;11.974;2023-04-25T14:13:00;11.30;99.90
16958;DHT22;8595;52.542;11.974;2023-04-25T14:15:28;12.30;99.90
16958;DHT22;8595;52.542;11.974;2023-04-25T14:17:55;12.70;99.90
16958;DHT22;8595;52.542;11.974;2023-04-25T14:20:22;13.50;99.90
16958;DHT22;8595;52.542;11.974;2023-04-25T14:22:51;13.90;99.90
16958;DHT22;8595;52.542;11.974;2023-04-25T14:25:19;14.00;99.90
16958;DHT22;8595;52.542;11.974;2023-04-25T14:27:46;14.10;99.90
16958;DHT22;8595;52.542;11.974;2023-04-25T14:30:15;13.70;99.90
16958;DHT22;8595;52.542;11.974;2023-04-25T14:32:42;13.30;99.90
16958;DHT22;8595;52.542;11.974;2023-04-25T14:35:09;12.50;99.90
16958;DHT22;8595;52.542;11.974;2023-04-25T14:37:36;12.10;99.90
16958;DHT22;8595;52.542;11.974;2023-04-25T14:40:06;11.60;99.90
16958;DHT22;8595;52.542;11.974;2023-04-25T14:42:34;11.50;99.90
16958;DHT22;8595;52.542;11.974;2023-04-25T14:45:01;11.70;99.90
16958;DHT22;8595;52.542;11.974;2023-04-25T14:47:28;11.60;99.90
16958;DHT22;8595;52.542;11.974;2023-04-25T14:49:55;11.10;99.90
16958;DHT22;8595;52.542;11.974;2023-04-25T14:52:23;10.60;99.90
16958;DHT22;8595;52.542;11.974;2023-04-25T14:54:51;10.40;99.90
16958;DHT22;8595;52.542;11.974;2023-04-25T14:57:20;10.50;99.90
16958;DHT22;8595;52.542;11.974;2023-04-25T14:59:46;10.20;99.90
16958;DHT22;8595;52.542;11.974;2023-04-25T15:02:14;9.90;99.90
16958;DHT22;8595;52.542;11.974;2023-04-25T15:04:41;10.10;99.90
16958;DHT22;8595;52.542;11.974;2023-04-25T15:07:08;10.00;99.90
16958;DHT22;8595;52.542;11.974;2023-04-25T15:09:34;10.30;99.90
16958;DHT22;8595;52.542;11.974;2023-04-25T15:12:01;10.40;99.90
16958;DHT22;8595;52.542;11.974;2023-04-25T15:14:30;10.70;99.90
16958;DHT22;8595;52.542;11.974;2023-04-25T15:16:56;11.30;99.90
16958;DHT22;8595;52.542;11.974;2023-04-25T15:19:23;12.40;99.90
16958;DHT22;8595;52.542;11.974;2023-04-25T15:21:50;13.20;99.90
16958;DHT22;8595;52.542;11.974;2023-04-25T15:24:17;13.50;99.90
16958;DHT22;8595;52.542;11.974;2023-04-25T15:26:44;12.90;99.90
16958;DHT22;8595;52.542;11.974;2023-04-25T15:29:11;12.70;99.90
16958;DHT22;8595;52.542;11.974;2023-04-25T15:31:39;12.80;99.90
16958;DHT22;8595;52.542;11.974;2023-04-25T15:34:06;13.40;99.90
16958;DHT22;8595;52.542;11.974;2023-04-25T15:36:32;14.00;99.90
16958;DHT22;8595;52.542;11.974;2023-04-25T15:38:59;14.40;99.90
16958;DHT22;8595;52.542;11.974;2023-04-25T15:41:26;14.90;99.90
16958;DHT22;8595;52.542;11.974;2023-04-25T15:43:52;15.20;99.90
16958;DHT22;8595;52.542;11.974;2023-04-25T15:46:19;14.70;99.90